Time;durP1;ratioP1;P1;durP2;ratioP2;P2;SDS_P1;SDS_P2;PMS_P1;PMS_P2;Temp;Humidity;BMP_temperature;BMP_pressure;BME280_temperature;BME280_humidity;BME280_pressure;Samples;Min_cycle;Max_cycle;Signal;HPM_P1;HPM_P2
2022/01/09 00:02:22;;;;;;;;;2.00;0.00;;;;;8.33;65.91;99554.97;5040791;28;46104;-50
2022/01/09 00:04:47;;;;;;;;;2.00;1.00;;;;;8.33;65.42;99548.84;5040637;28;45357;-49
2022/01/09 00:07:13;;;;;;;;;1.00;1.00;;;;;8.26;65.76;99563.84;5040903;28;45488;-48
2022/01/09 00:09:41;;;;;;;;;5.00;2.00;;;;;8.25;65.40;99556.88;5040619;28;45534;-50
2022/01/09 00:12:07;;;;;;;;;2.75;2.00;;;;;8.28;65.48;99575.16;5067529;28;46189;-49
2022/01/09 00:14:32;;;;;;;;;5.25;2.00;;;;;8.22;65.63;99581.38;5063309;28;45491;-46
2022/01/09 00:16:59;;;;;;;;;4.25;2.75;;;;;8.19;65.60;99580.59;5039750;28;45387;-48
2022/01/09 00:19:25;;;;;;;;;4.75;3.00;;;;;8.19;65.60;99591.94;5022967;28;45474;-51
2022/01/09 00:21:50;;;;;;;;;7.75;2.00;;;;;8.19;65.70;99594.53;5032659;28;47655;-46
2022/01/09 00:24:16;;;;;;;;;1.75;0.25;;;;;8.19;65.29;99618.09;5038021;28;45455;-47
2022/01/09 00:26:41;;;;;;;;;5.00;0.25;;;;;8.15;65.50;99611.22;5036996;28;45674;-50
2022/01/09 00:29:07;;;;;;;;;2.75;2.75;;;;;8.16;65.47;99625.16;5038133;28;45436;-50
2022/01/09 00:31:32;;;;;;;;;3.00;2.00;;;;;8.12;65.34;99624.34;5038310;28;45891;-50
2022/01/09 00:33:58;;;;;;;;;5.25;3.00;;;;;8.09;65.59;99624.44;5038933;28;45443;-49
2022/01/09 00:36:23;;;;;;;;;2.50;1.00;;;;;8.06;65.68;99632.34;5040821;28;46790;-49
2022/01/09 00:38:48;;;;;;;;;1.25;1.25;;;;;8.06;65.75;99633.22;5040255;28;45542;-49
2022/01/09 00:41:14;;;;;;;;;4.50;3.00;;;;;8.02;65.47;99622.84;5039176;28;45839;-50
2022/01/09 00:43:39;;;;;;;;;4.75;2.00;;;;;8.01;65.54;99640.28;5040242;28;45285;-48
2022/01/09 00:46:05;;;;;;;;;3.50;2.00;;;;;7.97;65.72;99643.84;5053705;28;45615;-48
2022/01/09 00:48:30;;;;;;;;;4.00;3.00;;;;;8.00;65.60;99649.03;5040239;28;45317;-49
2022/01/09 00:50:55;;;;;;;;;2.75;2.00;;;;;7.97;65.46;99647.34;5046476;28;45252;-48
2022/01/09 00:53:21;;;;;;;;;3.25;3.00;;;;;7.95;65.61;99656.97;5073166;28;45200;-49
2022/01/09 00:55:46;;;;;;;;;4.75;2.25;;;;;7.92;65.21;99672.75;5054917;28;45350;-50
2022/01/09 00:58:11;;;;;;;;;4.00;2.00;;;;;7.90;65.39;99674.53;5040340;28;45260;-50
2022/01/09 01:00:39;;;;;;;;;2.75;2.00;;;;;7.90;65.42;99679.75;5039940;28;45879;-49
2022/01/09 01:03:04;;;;;;;;;1.75;1.00;;;;;7.91;65.25;99683.22;5039784;28;45383;-49
2022/01/09 01:05:30;;;;;;;;;5.00;1.75;;;;;7.86;65.23;99685.06;5039758;28;45414;-49
2022/01/09 01:07:55;;;;;;;;;3.00;1.50;;;;;7.91;65.30;99707.66;5040091;28;45306;-49
2022/01/09 01:10:20;;;;;;;;;3.25;1.00;;;;;7.90;65.06;99712.88;5034927;28;46196;-48
2022/01/09 01:12:48;;;;;;;;;2.75;0.00;;;;;7.86;64.71;99719.06;5066481;28;45317;-46
2022/01/09 01:15:14;;;;;;;;;2.50;2.50;;;;;7.82;64.76;99726.13;5047010;28;45263;-47
2022/01/09 01:17:40;;;;;;;;;2.00;0.50;;;;;7.84;65.04;99740.03;5045965;28;45577;-49
2022/01/09 01:20:06;;;;;;;;;2.75;2.25;;;;;7.81;64.91;99747.94;5047631;28;46796;-47
2022/01/09 01:22:32;;;;;;;;;3.75;2.75;;;;;7.78;65.01;99756.69;5045596;28;45241;-50
2022/01/09 01:24:58;;;;;;;;;1.50;0.75;;;;;7.80;64.85;99757.53;5054204;28;45313;-47
2022/01/09 01:27:24;;;;;;;;;4.00;3.00;;;;;7.78;64.95;99764.53;5065024;28;45519;-49
2022/01/09 01:29:49;;;;;;;;;3.75;1.50;;;;;7.77;64.89;99761.97;5038257;28;47280;-49
2022/01/09 01:32:15;;;;;;;;;1.50;1.25;;;;;7.77;64.77;99775.03;5039140;28;45323;-48
2022/01/09 01:34:40;;;;;;;;;3.25;2.00;;;;;7.72;65.03;99775.16;5039867;28;45428;-46
2022/01/09 01:37:05;;;;;;;;;3.50;1.75;;;;;7.73;64.81;99787.31;5040861;28;45455;-47
2022/01/09 01:39:31;;;;;;;;;0.75;0.75;;;;;7.68;65.06;99798.75;5042916;28;46102;-49
2022/01/09 01:41:56;;;;;;;;;3.50;1.00;;;;;7.70;64.76;99815.25;5071011;28;45399;-47
2022/01/09 01:44:22;;;;;;;;;3.00;1.00;;;;;7.71;64.78;99824.84;5048792;28;45324;-46
2022/01/09 01:46:47;;;;;;;;;4.25;2.00;;;;;7.68;64.99;99820.53;5050956;28;45372;-46
2022/01/09 01:49:13;;;;;;;;;3.50;2.00;;;;;7.61;64.84;99818.88;5042862;28;46160;-50
2022/01/09 01:51:43;;;;;;;;;3.50;3.00;;;;;7.63;64.60;99825.84;5055447;28;45271;-46
2022/01/09 01:54:10;;;;;;;;;1.75;1.75;;;;;7.66;64.81;99843.25;5076569;28;45296;-45
2022/01/09 01:56:36;;;;;;;;;3.75;2.00;;;;;7.62;65.10;99852.88;5050109;28;45503;-45
2022/01/09 01:59:02;;;;;;;;;2.00;0.75;;;;;7.67;64.98;99851.94;5042757;28;46241;-46
2022/01/09 02:01:28;;;;;;;;;4.50;1.00;;;;;7.70;65.07;99870.19;5042816;28;45467;-47
2022/01/09 02:03:53;;;;;;;;;3.50;1.00;;;;;7.70;64.96;99865.84;5042504;28;45582;-48
2022/01/09 02:06:19;;;;;;;;;1.00;1.00;;;;;7.72;64.83;99869.28;5042748;28;45416;-48
2022/01/09 02:08:45;;;;;;;;;5.00;2.00;;;;;7.73;65.11;99873.63;5042558;28;45328;-49
2022/01/09 02:11:11;;;;;;;;;0.75;0.75;;;;;7.73;65.00;99871.00;5042542;28;45222;-49
2022/01/09 02:13:40;;;;;;;;;3.00;2.00;;;;;7.71;65.12;99880.63;5055933;28;45288;-49
2022/01/09 02:16:07;;;;;;;;;1.75;1.00;;;;;7.68;64.91;99872.81;5068755;28;45409;-46
2022/01/09 02:18:32;;;;;;;;;2.00;2.00;;;;;7.69;64.78;99871.94;5042240;28;46192;-45
2022/01/09 02:20:58;;;;;;;;;1.00;0.75;;;;;7.67;65.01;99884.16;5057039;28;45387;-46
2022/01/09 02:23:23;;;;;;;;;2.25;1.00;;;;;7.62;65.26;99886.88;5041536;28;45422;-49
2022/01/09 02:25:50;;;;;;;;;2.75;1.00;;;;;7.65;65.09;99897.28;5041080;28;45638;-49
2022/01/09 02:28:17;;;;;;;;;1.25;0.75;;;;;7.64;64.93;99897.31;5042490;28;46238;-48
2022/01/09 02:30:43;;;;;;;;;3.00;1.50;;;;;7.62;65.09;99894.72;5051877;28;46151;-46
2022/01/09 02:33:13;;;;;;;;;1.00;0.00;;;;;7.63;65.02;99893.84;5041017;28;45425;-47
2022/01/09 02:35:39;;;;;;;;;1.00;0.50;;;;;7.56;64.96;99896.56;5055361;28;45273;-46
2022/01/09 02:38:05;;;;;;;;;0.75;0.00;;;;;7.56;65.22;99893.94;5024475;28;47210;-45
2022/01/09 02:40:31;;;;;;;;;0.50;0.00;;;;;7.53;64.87;99910.53;5071089;28;45236;-48
2022/01/09 02:42:57;;;;;;;;;0.50;0.50;;;;;7.49;64.87;99912.31;5053155;28;45409;-47
2022/01/09 02:45:24;;;;;;;;;2.00;1.00;;;;;7.51;64.54;99906.22;5054342;28;45602;-45
2022/01/09 02:47:52;;;;;;;;;5.75;1.00;;;;;7.48;64.48;99909.75;5041236;28;46153;-45
2022/01/09 02:52:53;;;;;;;;;2.00;0.00;;;;;7.46;64.46;99924.59;5054683;28;45299;-45
2022/01/09 02:55:20;;;;;;;;;2.50;0.00;;;;;7.44;64.58;99942.06;5041757;28;45236;-45
2022/01/09 02:57:53;;;;;;;;;2.00;0.50;;;;;7.46;64.61;99945.53;5024329;28;45346;-44
2022/01/09 03:00:23;;;;;;;;;2.75;2.00;;;;;7.49;64.52;99948.06;5041765;28;45286;-48
2022/01/09 03:02:49;;;;;;;;;0.25;0.00;;;;;7.49;64.51;99940.22;5041812;28;45391;-46
2022/01/09 03:05:14;;;;;;;;;1.00;1.00;;;;;7.51;64.54;99938.47;5041764;28;46198;-49
2022/01/09 03:07:41;;;;;;;;;0.00;0.00;;;;;7.48;64.51;99935.88;5024039;28;45380;-46
2022/01/09 03:10:08;;;;;;;;;1.00;0.00;;;;;7.42;64.31;99955.16;5041516;28;45344;-49
2022/01/09 03:12:34;;;;;;;;;0.00;0.00;;;;;7.42;64.52;99949.91;5041836;28;45227;-46
2022/01/09 03:15:00;;;;;;;;;1.75;0.00;;;;;7.38;64.56;99960.44;5041619;28;45214;-46
2022/01/09 03:17:25;;;;;;;;;4.50;0.00;;;;;7.37;64.36;99956.97;5041240;28;45314;-45
2022/01/09 03:19:51;;;;;;;;;2.00;2.00;;;;;7.35;64.55;99957.88;5029492;28;45287;-46
2022/01/09 03:22:17;;;;;;;;;2.00;1.00;;;;;7.34;64.60;99967.44;5051008;28;45504;-46
2022/01/09 03:24:42;;;;;;;;;1.00;1.00;;;;;7.34;64.55;99964.84;5041517;28;45239;-46
2022/01/09 03:27:09;;;;;;;;;0.00;0.00;;;;;7.40;64.37;99971.75;5041511;28;45242;-50
2022/01/09 03:29:35;;;;;;;;;1.75;1.00;;;;;7.37;64.66;99972.66;5041472;28;45371;-46
2022/01/09 03:32:00;;;;;;;;;3.00;0.00;;;;;7.35;64.17;99963.94;5041217;28;45251;-49
2022/01/09 03:34:26;;;;;;;;;1.25;1.00;;;;;7.37;64.50;99964.81;5041421;28;45368;-49
2022/01/09 03:36:51;;;;;;;;;4.75;1.00;;;;;7.37;64.60;99967.44;5041297;28;46291;-46
2022/01/09 03:39:16;;;;;;;;;0.25;0.25;;;;;7.39;64.48;99964.78;5041263;28;45377;-50
2022/01/09 03:41:42;;;;;;;;;1.50;1.00;;;;;7.40;64.36;99971.75;5041448;28;45677;-47
2022/01/09 03:44:07;;;;;;;;;1.00;1.00;;;;;7.38;64.19;99976.97;5044291;28;45387;-49
2022/01/09 03:46:32;;;;;;;;;0.50;0.50;;;;;7.34;64.40;99971.81;5051028;28;46114;-45
2022/01/09 03:48:58;;;;;;;;;1.00;1.00;;;;;7.35;64.49;100002.31;5041199;28;45360;-46
2022/01/09 03:51:26;;;;;;;;;0.00;0.00;;;;;7.33;64.47;100004.91;5033740;28;45316;-48
2022/01/09 03:53:52;;;;;;;;;3.75;0.00;;;;;7.35;64.50;100005.78;5044112;28;45442;-47
2022/01/09 03:56:17;;;;;;;;;0.75;0.25;;;;;7.33;64.34;100010.16;5041017;28;46260;-47
2022/01/09 03:58:43;;;;;;;;;2.50;1.00;;;;;7.35;64.60;100002.31;5040995;28;45305;-45
2022/01/09 04:01:08;;;;;;;;;0.00;0.00;;;;;7.36;64.57;100004.91;5040940;28;45401;-44
2022/01/09 04:03:34;;;;;;;;;1.75;0.75;;;;;7.37;64.59;100005.75;5040989;28;45542;-46
2022/01/09 04:06:01;;;;;;;;;2.00;1.00;;;;;7.36;64.70;100004.91;5040757;28;46293;-45
2022/01/09 04:08:27;;;;;;;;;1.25;0.75;;;;;7.35;64.70;100008.38;5040793;28;45609;-49
2022/01/09 04:10:52;;;;;;;;;1.75;0.50;;;;;7.39;64.56;100019.69;5040725;28;45483;-54
2022/01/09 04:13:18;;;;;;;;;3.50;0.00;;;;;7.37;64.84;100004.03;5040594;28;45250;-47
2022/01/09 04:15:49;;;;;;;;;2.25;0.75;;;;;7.37;64.90;100006.63;5040740;28;45381;-46
2022/01/09 04:18:19;;;;;;;;;2.75;0.00;;;;;7.37;64.64;100004.03;5040555;28;45357;-53
2022/01/09 04:20:45;;;;;;;;;2.25;1.00;;;;;7.39;64.88;100002.22;5054115;28;45482;-47
2022/01/09 04:23:11;;;;;;;;;0.00;0.00;;;;;7.39;64.78;100002.22;5041055;28;45499;-47
2022/01/09 04:25:38;;;;;;;;;4.00;0.25;;;;;7.40;64.99;100003.13;5040307;28;46381;-47
2022/01/09 04:28:04;;;;;;;;;0.50;0.25;;;;;7.38;64.95;100000.50;5040730;28;45233;-45
2022/01/09 04:30:29;;;;;;;;;6.25;1.00;;;;;7.38;64.79;100010.94;5025940;28;45416;-45
2022/01/09 04:32:55;;;;;;;;;1.75;0.00;;;;;7.38;64.98;100010.94;5053463;28;45284;-48
2022/01/09 04:35:20;;;;;;;;;2.50;1.00;;;;;7.36;64.90;100011.84;5040505;28;45337;-48
2022/01/09 04:37:47;;;;;;;;;4.00;1.00;;;;;7.33;65.10;100007.53;5040650;28;45297;-48
2022/01/09 04:40:14;;;;;;;;;3.75;2.00;;;;;7.34;64.87;100011.88;5040256;28;45308;-45
2022/01/09 04:42:46;;;;;;;;;1.50;1.50;;;;;7.31;64.84;100011.94;5040297;28;45454;-46
2022/01/09 04:45:14;;;;;;;;;4.50;1.25;;;;;7.32;64.76;100006.69;5052100;28;45585;-45
2022/01/09 04:47:43;;;;;;;;;1.25;1.00;;;;;7.31;64.85;100014.56;5041028;28;45293;-44
2022/01/09 04:50:13;;;;;;;;;2.75;1.00;;;;;7.31;64.88;100006.72;5040816;28;45305;-45
2022/01/09 04:52:40;;;;;;;;;2.25;0.75;;;;;7.31;64.89;100004.94;5053452;28;45455;-45
2022/01/09 04:55:05;;;;;;;;;1.25;0.00;;;;;7.31;64.84;100015.41;5040106;28;45267;-48
2022/01/09 04:57:31;;;;;;;;;2.00;0.25;;;;;7.30;65.19;100023.28;5039944;28;45238;-45
2022/01/09 04:59:56;;;;;;;;;3.00;1.00;;;;;7.30;64.87;100028.50;5040218;28;45298;-45
2022/01/09 05:02:21;;;;;;;;;1.50;0.00;;;;;7.30;65.20;100033.72;5038773;28;45620;-47
2022/01/09 05:04:47;;;;;;;;;2.75;0.00;;;;;7.29;64.87;100022.38;5038551;28;45529;-47
2022/01/09 05:07:12;;;;;;;;;1.75;0.00;;;;;7.29;65.12;100018.91;5053833;28;45229;-47
2022/01/09 05:09:37;;;;;;;;;3.00;2.00;;;;;7.30;65.12;100033.72;5039916;28;45317;-47
2022/01/09 05:12:03;;;;;;;;;4.25;0.50;;;;;7.31;65.19;100025.00;5021222;28;45547;-44
2022/01/09 05:14:29;;;;;;;;;0.00;0.00;;;;;7.32;65.07;100024.97;5066551;28;46334;-48
2022/01/09 05:16:54;;;;;;;;;1.00;0.00;;;;;7.31;65.06;100032.84;5053426;28;45373;-47
2022/01/09 05:19:22;;;;;;;;;3.75;0.00;;;;;7.28;65.08;100015.44;5041701;28;45325;-48
2022/01/09 05:21:49;;;;;;;;;0.00;0.00;;;;;7.25;65.16;100009.41;5060228;28;45431;-47
2022/01/09 05:24:15;;;;;;;;;1.75;0.00;;;;;7.25;65.30;100025.06;5045731;28;45355;-46
2022/01/09 05:26:41;;;;;;;;;0.00;0.00;;;;;7.22;65.30;100018.13;5039757;28;45425;-44
2022/01/09 05:29:06;;;;;;;;;1.00;1.00;;;;;7.19;65.27;100031.22;5039698;28;45191;-46
2022/01/09 05:31:32;;;;;;;;;1.75;1.50;;;;;7.18;65.35;100015.56;5039620;28;45218;-44
2022/01/09 05:33:57;;;;;;;;;2.00;0.00;;;;;7.16;65.37;100016.44;5039441;28;45270;-44
2022/01/09 05:36:22;;;;;;;;;1.50;1.00;;;;;7.10;65.48;99990.38;5039783;28;45410;-46
2022/01/09 05:38:48;;;;;;;;;1.75;1.00;;;;;7.13;65.70;100010.38;5039693;28;45234;-48
2022/01/09 05:41:13;;;;;;;;;1.50;1.00;;;;;7.12;65.72;100011.28;5039686;28;45147;-48
2022/01/09 05:43:40;;;;;;;;;3.00;2.00;;;;;7.11;65.65;100009.56;5039429;28;45407;-44
2022/01/09 05:46:06;;;;;;;;;2.75;1.25;;;;;7.06;65.66;100014.81;5052955;28;45339;-46
2022/01/09 05:48:31;;;;;;;;;1.00;1.00;;;;;7.05;65.75;100007.88;5039493;28;45336;-46
2022/01/09 05:50:56;;;;;;;;;1.00;1.00;;;;;7.05;65.75;100015.72;5045918;28;45249;-46
2022/01/09 05:53:22;;;;;;;;;2.50;1.00;;;;;7.03;65.73;100009.66;5072381;28;45378;-47
2022/01/09 05:55:47;;;;;;;;;2.00;1.00;;;;;7.04;65.64;100011.34;5053841;28;45384;-47
2022/01/09 05:58:13;;;;;;;;;3.75;1.25;;;;;6.98;65.48;100007.09;5065159;28;45291;-48
2022/01/09 06:00:38;;;;;;;;;0.00;0.00;;;;;6.97;65.77;99999.28;5053878;28;45646;-48
2022/01/09 06:03:03;;;;;;;;;3.00;2.00;;;;;6.99;65.55;100005.31;5039091;28;47231;-46
2022/01/09 06:05:29;;;;;;;;;3.25;1.00;;;;;6.97;65.55;100004.50;5039161;28;45364;-46
2022/01/09 06:07:54;;;;;;;;;1.50;1.00;;;;;6.96;65.59;100006.22;5039518;28;45292;-46
2022/01/09 06:10:20;;;;;;;;;5.50;3.00;;;;;6.95;65.64;100011.47;5039028;28;45195;-47
2022/01/09 06:12:45;;;;;;;;;1.00;0.00;;;;;6.93;65.73;100008.88;5039135;28;46030;-47
2022/01/09 06:15:11;;;;;;;;;1.00;0.50;;;;;6.92;65.60;100006.28;5021390;28;45310;-46
2022/01/09 06:17:41;;;;;;;;;3.25;0.75;;;;;6.91;65.69;100022.84;5039344;28;45383;-47
2022/01/09 06:20:08;;;;;;;;;1.50;1.00;;;;;6.88;65.57;100023.75;5047254;28;45416;-44
2022/01/09 06:22:34;;;;;;;;;3.00;1.00;;;;;6.87;65.50;100045.50;5045704;28;45331;-47
2022/01/09 06:24:59;;;;;;;;;2.00;0.75;;;;;6.87;65.54;100053.34;5042414;28;45262;-45
2022/01/09 06:27:24;;;;;;;;;3.25;1.75;;;;;6.91;65.68;100059.41;5041366;28;45314;-47
2022/01/09 06:29:50;;;;;;;;;3.75;2.00;;;;;6.91;65.60;100057.66;5042568;28;45450;-47
2022/01/09 06:32:16;;;;;;;;;1.00;1.00;;;;;6.92;65.57;100054.16;5042123;28;46282;-46
2022/01/09 06:34:41;;;;;;;;;2.75;1.25;;;;;6.94;65.51;100056.75;5042518;28;45574;-53
2022/01/09 06:37:07;;;;;;;;;2.75;2.75;;;;;6.93;65.72;100052.41;5042534;28;45412;-55
2022/01/09 06:39:33;;;;;;;;;2.75;1.50;;;;;6.97;65.51;100056.75;5042332;28;45432;-48
2022/01/09 06:41:59;;;;;;;;;3.25;2.00;;;;;6.98;65.44;100042.78;5041798;28;46064;-48
2022/01/09 06:44:24;;;;;;;;;2.25;1.00;;;;;6.99;65.56;100037.56;5047399;28;45421;-53
2022/01/09 06:46:50;;;;;;;;;6.00;1.75;;;;;6.99;65.48;100034.94;5050167;28;45328;-43
2022/01/09 06:49:15;;;;;;;;;1.25;1.25;;;;;7.02;65.69;100049.72;5042013;28;45399;-46
2022/01/09 06:51:40;;;;;;;;;5.00;0.75;;;;;7.03;65.70;100051.44;5054603;28;46904;-45
2022/01/09 06:54:06;;;;;;;;;2.00;1.00;;;;;7.05;65.58;100061.88;5043148;28;45424;-46
2022/01/09 06:56:31;;;;;;;;;2.00;0.50;;;;;7.03;65.69;100059.28;5042340;28;45349;-48
2022/01/09 06:58:57;;;;;;;;;2.25;1.00;;;;;7.02;65.64;100057.56;5041925;28;45495;-44
2022/01/09 07:01:22;;;;;;;;;1.25;1.00;;;;;6.98;65.67;100055.84;5041660;28;47163;-47
2022/01/09 07:03:47;;;;;;;;;2.00;0.50;;;;;6.94;65.91;100057.63;5041676;28;45379;-48
2022/01/09 07:06:13;;;;;;;;;1.25;1.25;;;;;6.94;65.73;100048.91;5041683;28;45515;-48
2022/01/09 07:08:38;;;;;;;;;2.00;1.00;;;;;6.95;65.83;100050.66;5041779;28;45552;-46
2022/01/09 07:11:04;;;;;;;;;1.75;0.50;;;;;6.88;65.83;100041.13;5041572;28;46072;-46
2022/01/09 07:13:31;;;;;;;;;2.75;1.25;;;;;6.92;65.90;100048.09;5041691;28;45282;-47
2022/01/09 07:15:56;;;;;;;;;2.75;1.00;;;;;6.90;65.59;100042.84;5041708;28;45548;-45
2022/01/09 07:18:22;;;;;;;;;0.00;0.00;;;;;6.91;65.72;100043.75;5041388;28;45576;-46
2022/01/09 07:20:47;;;;;;;;;1.25;0.00;;;;;6.93;65.52;100045.47;5055372;28;45402;-47
2022/01/09 07:23:12;;;;;;;;;0.25;0.00;;;;;6.92;65.83;100042.88;5042758;28;45468;-48
2022/01/09 07:25:38;;;;;;;;;1.25;1.00;;;;;6.95;65.79;100054.13;5041463;28;45304;-49
2022/01/09 07:28:03;;;;;;;;;2.00;0.25;;;;;6.99;65.73;100062.78;5041556;28;45221;-46
2022/01/09 07:30:30;;;;;;;;;0.00;0.00;;;;;7.00;65.53;100062.78;5041545;28;46289;-47
2022/01/09 07:32:56;;;;;;;;;1.00;1.00;;;;;7.02;65.83;100068.00;5023306;28;45439;-46
2022/01/09 07:35:22;;;;;;;;;1.00;0.00;;;;;7.04;65.90;100068.84;5040956;28;45399;-45
2022/01/09 07:37:47;;;;;;;;;1.50;1.00;;;;;7.03;66.08;100056.69;5023408;28;45345;-46
2022/01/09 07:40:13;;;;;;;;;1.00;1.00;;;;;7.05;66.05;100062.72;5041266;28;46107;-45
2022/01/09 07:42:39;;;;;;;;;0.50;0.00;;;;;7.06;65.94;100061.00;5040905;28;45442;-45
2022/01/09 07:45:08;;;;;;;;;2.00;1.50;;;;;7.09;66.08;100066.19;5052358;28;45439;-45
2022/01/09 07:47:37;;;;;;;;;7.00;3.00;;;;;7.11;65.92;100069.66;5042645;28;45618;-44
2022/01/09 07:50:09;;;;;;;;;0.75;0.75;;;;;7.10;66.20;100071.38;5041741;28;45405;-45
2022/01/09 07:52:35;;;;;;;;;2.00;0.50;;;;;7.12;66.15;100074.00;5036676;28;45869;-45
2022/01/09 07:55:02;;;;;;;;;1.00;1.00;;;;;7.13;66.05;100076.59;5023011;28;45431;-46
2022/01/09 07:57:27;;;;;;;;;3.00;1.00;;;;;7.17;66.02;100074.81;5040983;28;45319;-45
2022/01/09 07:59:52;;;;;;;;;4.25;2.00;;;;;7.18;65.94;100060.84;5040696;28;46211;-47
2022/01/09 08:02:18;;;;;;;;;4.25;3.75;;;;;7.21;66.10;100059.94;5044692;28;45356;-46
2022/01/09 08:04:43;;;;;;;;;3.75;2.00;;;;;7.23;66.10;100063.41;5061159;28;45265;-46
2022/01/09 08:07:09;;;;;;;;;4.00;2.25;;;;;7.26;66.07;100066.88;5054300;28;45298;-46
2022/01/09 08:09:34;;;;;;;;;2.00;2.00;;;;;7.29;66.07;100069.44;5040658;28;45251;-45
2022/01/09 08:11:59;;;;;;;;;3.75;2.25;;;;;7.32;66.01;100060.72;5040562;28;45281;-45
2022/01/09 08:14:25;;;;;;;;;3.75;0.50;;;;;7.34;66.00;100064.16;5041022;28;45290;-49
2022/01/09 08:16:50;;;;;;;;;1.75;0.75;;;;;7.36;66.19;100059.78;5040478;28;45219;-46
2022/01/09 08:19:15;;;;;;;;;2.00;2.00;;;;;7.35;66.10;100062.44;5041641;28;45553;-48
2022/01/09 08:21:41;;;;;;;;;1.00;1.00;;;;;7.32;66.11;100048.50;5036354;28;45469;-47
2022/01/09 08:24:06;;;;;;;;;2.25;0.00;;;;;7.34;66.31;100061.53;5022811;28;45543;-48
2022/01/09 08:26:32;;;;;;;;;3.00;0.75;;;;;7.30;66.35;100062.47;5053378;28;45290;-45
2022/01/09 08:28:57;;;;;;;;;1.00;1.00;;;;;7.30;66.35;100071.16;5067569;28;45217;-46
2022/01/09 08:31:23;;;;;;;;;2.75;1.75;;;;;7.29;66.35;100081.66;5040443;28;45361;-46
2022/01/09 08:33:49;;;;;;;;;1.00;1.00;;;;;7.28;66.57;100083.41;5040510;28;45395;-45
2022/01/09 08:36:14;;;;;;;;;3.25;1.75;;;;;7.29;66.44;100081.66;5040181;28;45477;-47
2022/01/09 08:38:42;;;;;;;;;4.00;2.00;;;;;7.30;66.41;100084.25;5022328;28;47250;-48
2022/01/09 08:41:07;;;;;;;;;8.00;2.75;;;;;7.31;66.30;100078.13;5022400;28;45382;-47
2022/01/09 08:43:36;;;;;;;;;10.50;9.00;;;;;7.34;66.38;100079.84;5040910;28;45450;-47
2022/01/09 08:46:01;;;;;;;;;4.00;3.00;;;;;7.37;66.16;100084.16;5052749;28;45409;-44
2022/01/09 08:48:26;;;;;;;;;7.00;2.50;;;;;7.39;66.25;100083.25;5039629;28;46312;-44
2022/01/09 08:50:52;;;;;;;;;4.00;2.25;;;;;7.38;66.46;100073.69;5046181;28;45294;-47
2022/01/09 08:53:17;;;;;;;;;5.25;3.25;;;;;7.46;66.21;100087.53;5048298;28;45360;-45
2022/01/09 08:55:42;;;;;;;;;4.00;2.00;;;;;7.48;66.33;100066.59;5038383;28;45420;-49
2022/01/09 08:58:08;;;;;;;;;3.50;3.50;;;;;7.52;66.16;100076.16;5022079;28;45905;-49
2022/01/09 09:00:33;;;;;;;;;4.00;3.00;;;;;7.55;66.25;100072.66;5022105;28;45361;-48
2022/01/09 09:02:59;;;;;;;;;3.00;1.25;;;;;7.54;66.49;100071.75;5040039;28;45481;-46
2022/01/09 09:05:24;;;;;;;;;3.00;3.00;;;;;7.55;66.24;100077.88;5039741;28;45388;-45
2022/01/09 09:07:49;;;;;;;;;5.50;2.50;;;;;7.57;66.36;100073.47;5039718;28;46061;-44
2022/01/09 09:10:15;;;;;;;;;10.00;5.25;;;;;7.56;66.47;100079.59;5039622;28;45317;-48
2022/01/09 09:12:40;;;;;;;;;7.00;5.25;;;;;7.55;66.24;100073.50;5039913;28;45420;-48
2022/01/09 09:15:07;;;;;;;;;5.50;4.25;;;;;7.55;66.37;100070.03;5039401;28;45329;-46
2022/01/09 09:17:33;;;;;;;;;6.25;3.25;;;;;7.51;66.26;100066.59;5021645;28;47135;-45
2022/01/09 09:19:58;;;;;;;;;2.00;1.00;;;;;7.51;66.46;100078.78;5028533;28;45485;-47
2022/01/09 09:22:24;;;;;;;;;3.25;2.75;;;;;7.51;66.06;100081.38;5047481;28;45366;-49
2022/01/09 09:24:49;;;;;;;;;1.50;1.50;;;;;7.46;66.37;100076.25;5039595;28;45507;-46
2022/01/09 09:27:15;;;;;;;;;2.00;1.00;;;;;7.51;66.38;100082.28;5039663;28;46195;-49
2022/01/09 09:29:41;;;;;;;;;2.00;1.00;;;;;7.54;66.19;100091.84;5039555;28;45226;-49
2022/01/09 09:32:07;;;;;;;;;1.75;0.50;;;;;7.54;66.19;100091.84;5039498;28;45361;-47
2022/01/09 09:34:33;;;;;;;;;3.50;1.00;;;;;7.49;66.42;100091.88;5039485;28;45601;-47
2022/01/09 09:36:58;;;;;;;;;3.75;2.75;;;;;7.53;66.44;100097.94;5039483;28;46210;-50
2022/01/09 09:39:24;;;;;;;;;3.00;1.50;;;;;7.54;66.34;100097.91;5039160;28;45442;-48
2022/01/09 09:41:52;;;;;;;;;4.50;2.00;;;;;7.56;66.42;100100.50;5039580;28;45606;-47
2022/01/09 09:44:18;;;;;;;;;4.00;1.00;;;;;7.59;66.25;100100.47;5043814;28;45274;-44
2022/01/09 09:46:51;;;;;;;;;4.75;2.50;;;;;7.60;66.34;100099.59;5047918;28;45538;-45
2022/01/09 09:49:17;;;;;;;;;3.25;3.00;;;;;7.61;66.60;100091.72;5039284;28;45384;-49
2022/01/09 09:51:43;;;;;;;;;4.00;2.50;;;;;7.62;66.38;100097.81;5034497;28;45392;-46
2022/01/09 09:54:09;;;;;;;;;4.50;3.00;;;;;7.63;66.38;100091.72;5039776;28;45514;-49
2022/01/09 09:56:34;;;;;;;;;5.75;3.00;;;;;7.68;66.53;100108.19;5038950;28;46317;-48
2022/01/09 09:59:01;;;;;;;;;3.00;2.00;;;;;7.72;66.41;100107.31;5041859;28;45278;-48
2022/01/09 10:01:32;;;;;;;;;8.00;4.50;;;;;7.76;66.67;100118.56;5042757;28;45203;-49
2022/01/09 10:04:00;;;;;;;;;4.25;2.25;;;;;7.79;66.24;100122.00;5046425;28;45432;-47
2022/01/09 10:06:42;;;;;;;;;2.50;2.50;;;;;7.76;66.46;100123.78;5071288;28;46309;-47
2022/01/09 10:09:11;;;;;;;;;4.00;3.00;;;;;7.78;66.25;100124.66;5052652;28;45412;-48
2022/01/09 10:11:51;;;;;;;;;3.75;3.50;;;;;7.80;66.46;100121.13;5052168;28;45261;-50
2022/01/09 10:14:23;;;;;;;;;2.00;2.00;;;;;7.83;66.46;100119.38;5049992;28;45337;-47
2022/01/09 10:17:16;;;;;;;;;6.50;3.25;;;;;7.84;66.70;100116.72;5042173;28;45233;-49
2022/01/09 10:19:50;;;;;;;;;4.50;3.00;;;;;7.87;66.29;100115.81;5049448;28;45358;-49
2022/01/09 10:22:36;;;;;;;;;7.50;5.00;;;;;7.88;66.70;100115.78;5067847;28;45223;-45
2022/01/09 10:25:25;;;;;;;;;3.75;3.00;;;;;7.89;66.57;100121.91;5050213;28;45457;-49
2022/01/09 10:27:57;;;;;;;;;3.00;2.00;;;;;7.88;66.62;100123.66;5042253;28;45780;-49
2022/01/09 10:30:26;;;;;;;;;1.50;1.50;;;;;7.90;66.48;100126.22;5039757;28;45544;-47
2022/01/09 10:33:04;;;;;;;;;3.00;2.00;;;;;7.90;66.74;100128.84;5040376;28;45474;-47
2022/01/09 10:35:30;;;;;;;;;4.50;4.00;;;;;7.93;66.47;100111.38;5041391;28;45199;-45
2022/01/09 10:38:27;;;;;;;;;7.00;4.25;;;;;7.98;66.41;100127.00;5041922;28;45316;-47
2022/01/09 10:40:58;;;;;;;;;8.00;5.25;;;;;8.02;66.58;100127.84;5041601;28;45249;-49
2022/01/09 10:43:46;;;;;;;;;4.25;3.25;;;;;8.07;66.39;100131.25;5042211;28;45377;-47
2022/01/09 10:46:12;;;;;;;;;9.25;7.50;;;;;8.11;66.33;100144.28;5062003;28;45419;-49
2022/01/09 10:48:39;;;;;;;;;28.00;21.75;;;;;8.17;66.28;100137.25;5048603;28;46114;-47
2022/01/09 10:51:07;;;;;;;;;40.00;33.00;;;;;8.20;66.52;100134.56;5049415;28;45385;-47
2022/01/09 10:53:34;;;;;;;;;11.75;11.00;;;;;8.23;66.57;100137.16;5047991;28;45229;-46
2022/01/09 10:56:08;;;;;;;;;15.25;13.75;;;;;8.27;66.29;100144.91;5041768;28;45547;-46
2022/01/09 10:58:38;;;;;;;;;11.25;11.25;;;;;8.30;66.62;100134.41;5023726;28;47049;-46
2022/01/09 11:01:11;;;;;;;;;1.75;1.00;;;;;8.32;66.48;100129.16;5041858;28;45301;-46
2022/01/09 11:03:38;;;;;;;;;2.25;2.25;;;;;8.35;66.39;100133.47;5041763;28;45261;-46
2022/01/09 11:06:04;;;;;;;;;2.75;2.00;;;;;8.37;66.26;100132.56;5041526;28;45414;-48
2022/01/09 11:08:30;;;;;;;;;1.25;0.00;;;;;8.39;66.56;100133.41;5041527;28;45413;-46
2022/01/09 11:11:01;;;;;;;;;0.00;0.00;;;;;8.41;66.52;100129.00;5040462;28;45314;-44
2022/01/09 11:13:28;;;;;;;;;1.00;0.75;;;;;8.41;66.55;100139.47;5041222;28;45241;-48
2022/01/09 11:18:41;;;;;;;;;2.75;0.00;;;;;8.37;66.22;100136.97;5045324;28;45724;-49
2022/01/09 11:21:08;;;;;;;;;1.00;0.00;;;;;8.35;66.24;100138.72;5054393;28;45323;-47
2022/01/09 11:24:05;;;;;;;;;0.00;0.00;;;;;8.29;66.08;100148.41;5053477;28;45337;-50
2022/01/09 11:26:50;;;;;;;;;1.50;0.25;;;;;8.26;66.21;100150.19;5042865;28;45241;-48
2022/01/09 11:29:23;;;;;;;;;1.50;0.00;;;;;8.23;66.17;100150.25;5045696;28;46140;-46
2022/01/09 11:31:59;;;;;;;;;0.25;0.00;;;;;8.21;66.10;100149.38;5041037;28;45447;-46
2022/01/09 11:34:58;;;;;;;;;2.00;1.00;;;;;8.18;66.02;100146.81;5041139;28;45278;-50
2022/01/09 11:37:45;;;;;;;;;3.00;1.75;;;;;8.12;66.15;100143.38;5008430;28;45750;-48
2022/01/09 11:40:39;;;;;;;;;3.00;3.00;;;;;8.09;66.18;100140.81;5041077;28;45521;-48
2022/01/09 11:43:17;;;;;;;;;8.25;8.00;;;;;8.10;66.29;100141.66;5040986;28;45502;-46